Weather History for Effingham, IL

Change the Weather History Date:

Monday, March 11, 2013

  Actual Average (KMTO) Record (KMTO)
Temperature  
Mean Temperature 42 °F 41 °F  
Max Temperature 50 °F 50 °F 78 °F (1990)
Min Temperature 34 °F 31 °F 9 °F (1998)
Degree Days  
Heating Degree Days 23 24  
Month to date heating degree days 288  
Since 1 July heating degree days 4492  
Cooling Degree Days 0 0  
Month to date cooling degree days 0  
Year to date cooling degree days 0  
Moisture  
Dew Point 35 °F    
Average Humidity 85    
Maximum Humidity 94    
Minimum Humidity 70    
Precipitation  
Precipitation 0.00 in 0.07 in 0.54 in (1985)
Month to date precipitation 0.67  
Year to date precipitation 4.65  
Sea Level Pressure  
Sea Level Pressure 29.78 in    
Wind  
Wind Speed 10 mph (WSW)    
Max Wind Speed 18 mph    
Max Gust Speed 26 mph    
Visibility 9 miles    
Events Rain , Snow    
T = Trace of Precipitation, MM = Missing Value Source: NWS Daily Summary

Daily Weather History Graph

Daily Weather History Graph

Search for Another Location

Airport:

Trip Planner

Search our weather history database for the weather conditions in past years. The results will help you decide how hot, cold, wet, or windy it might be!

Date:

Astronomy

Mar. 11, 2013 Rise Set
Actual Time 7:11 AM CDT 6:57 PM CDT
Civil Twilight 6:44 AM CDT 7:24 PM CDT
Nautical Twilight 6:13 AM CDT 7:55 PM CDT
Astronomical Twilight 5:42 AM CDT 8:26 PM CDT
Moon 6:45 AM CDT (3/11) 7:08 PM CDT (3/11)
Length of Visible Light 12h 39m
Length of Day
11h 46m
Waning Crescent, 0% of the Moon is Illuminated
Mar 11
Waning Crescent
Mar 11
New
Mar 19
First Quarter
Mar 27
Full
Apr 2
Last Quarter

Hourly Weather History & Observations

Time (CDT) Temp. Windchill Dew Point Humidity Pressure Visibility Wind Dir Wind Speed Gust Speed Precip Events Conditions
12:15 AM 50.0 °F - 48.4 °F 94% 29.72 in 10.0 mi SSW 9.2 mph 17.3 mph N/A   Overcast
12:35 AM 50.0 °F - 48.2 °F 94% 29.71 in 10.0 mi SSW 10.4 mph - N/A   Overcast
12:55 AM 50.0 °F - 47.8 °F 92% 29.71 in 10.0 mi SSW 9.2 mph - N/A   Overcast
1:15 AM 49.6 °F - 47.8 °F 94% 29.70 in 10.0 mi SSW 10.4 mph - N/A   Overcast
1:35 AM 49.6 °F - 47.8 °F 94% 29.70 in 10.0 mi South 4.6 mph - N/A   Overcast
1:55 AM 50.0 °F - 48.2 °F 94% 29.70 in 10.0 mi South 6.9 mph - N/A   Overcast
2:15 AM 48.9 °F - 46.9 °F 93% 29.70 in 3.0 mi WSW 9.2 mph 16.1 mph N/A Rain Light Rain
2:35 AM 48.2 °F - 44.6 °F 87% 29.70 in 10.0 mi SW 6.9 mph - N/A   Overcast
2:55 AM 47.5 °F - 44.8 °F 90% 29.70 in 10.0 mi SW 8.1 mph - N/A   Overcast
3:15 AM 47.3 °F - 44.1 °F 88% 29.69 in 10.0 mi SW 8.1 mph - N/A   Overcast
3:35 AM 46.8 °F - 43.2 °F 87% 29.68 in 10.0 mi WSW 10.4 mph 16.1 mph N/A   Overcast
3:55 AM 45.9 °F 42.3 °F 42.8 °F 89% 29.67 in 10.0 mi WSW 6.9 mph - N/A   Overcast
4:15 AM 45.5 °F 42.5 °F 42.8 °F 90% 29.66 in 10.0 mi WSW 5.8 mph - N/A   Overcast
4:35 AM 45.5 °F 41.8 °F 42.8 °F 90% 29.68 in 10.0 mi WSW 6.9 mph - N/A   Overcast
4:55 AM 45.1 °F 40.8 °F 43.0 °F 92% 29.70 in 7.0 mi SW 8.1 mph - N/A Rain Light Rain
5:15 AM 44.6 °F 41.4 °F 42.8 °F 93% 29.69 in 5.0 mi SW 5.8 mph - N/A Rain Light Rain
5:35 AM 44.1 °F 38.6 °F 41.5 °F 91% 29.70 in 7.0 mi West 10.4 mph 18.4 mph N/A   Overcast
5:55 AM 42.8 °F 38.6 °F 40.1 °F 90% 29.71 in 10.0 mi WSW 6.9 mph - N/A   Overcast
6:15 AM 42.4 °F 37.5 °F 39.4 °F 89% 29.70 in 10.0 mi WSW 8.1 mph - N/A Rain Light Rain
6:35 AM 42.3 °F 37.3 °F 39.6 °F 90% 29.71 in 5.0 mi WSW 8.1 mph - N/A Rain Light Rain
6:55 AM 41.9 °F 35.9 °F 39.7 °F 92% 29.70 in 4.0 mi West 10.4 mph - N/A   Overcast
7:15 AM 41.0 °F 35.2 °F 39.2 °F 93% 29.70 in 5.0 mi West 9.2 mph - N/A Rain Light Rain
7:35 AM 40.3 °F 33.9 °F 37.6 °F 90% 29.71 in 5.0 mi West 10.4 mph - N/A Rain Light Rain
7:55 AM 39.7 °F 34.9 °F 37.6 °F 92% 29.72 in 4.0 mi WSW 6.9 mph - N/A   Overcast
8:15 AM 39.2 °F 33.0 °F 37.4 °F 93% 29.72 in 4.0 mi WSW 9.2 mph - N/A   Overcast
8:35 AM 39.0 °F 31.8 °F 36.9 °F 92% 29.70 in 5.0 mi WSW 11.5 mph - N/A   Overcast
8:55 AM 38.3 °F 30.5 °F 36.0 °F 91% 29.72 in 10.0 mi WSW 12.7 mph 18.4 mph N/A   Overcast
9:15 AM 37.8 °F 29.8 °F 34.7 °F 89% 29.73 in 10.0 mi West 12.7 mph 20.7 mph N/A   Overcast
9:35 AM 37.4 °F 31.4 °F 33.8 °F 87% 29.73 in 10.0 mi WSW 8.1 mph - N/A   Overcast
9:55 AM 37.2 °F 27.9 °F 33.6 °F 87% 29.75 in 10.0 mi WSW 16.1 mph - N/A   Overcast
10:15 AM 36.7 °F 28.0 °F 33.3 °F 87% 29.75 in 10.0 mi West 13.8 mph 24.2 mph N/A   Overcast
10:35 AM 36.1 °F 27.3 °F 33.1 °F 89% 29.75 in 7.0 mi WSW 13.8 mph 18.4 mph N/A   Overcast
10:55 AM 35.6 °F 27.1 °F 32.4 °F 88% 29.75 in 5.0 mi WSW 12.7 mph - N/A   Overcast
11:15 AM 35.6 °F 26.6 °F 32.0 °F 87% 29.76 in 7.0 mi WSW 13.8 mph 21.9 mph N/A   Overcast
11:35 AM 35.8 °F 28.3 °F 32.4 °F 87% 29.76 in 7.0 mi WSW 10.4 mph 20.7 mph N/A   Overcast
11:55 AM 36.7 °F 27.6 °F 32.2 °F 84% 29.75 in 10.0 mi WSW 15.0 mph 18.4 mph N/A   Overcast
12:15 PM 36.0 °F 28.5 °F 32.0 °F 86% 29.75 in 10.0 mi WSW 10.4 mph - N/A   Overcast
12:35 PM 35.2 °F 27.1 °F 32.2 °F 89% 29.76 in 5.0 mi WSW 11.5 mph 21.9 mph N/A Snow Light Snow
12:55 PM 35.4 °F 27.3 °F 32.2 °F 88% 29.76 in 7.0 mi WSW 11.5 mph 16.1 mph N/A   Overcast
1:15 PM 35.2 °F 26.6 °F 31.8 °F 87% 29.76 in 10.0 mi WSW 12.7 mph 21.9 mph N/A   Overcast
1:35 PM 35.6 °F 25.2 °F 31.5 °F 85% 29.77 in 10.0 mi WSW 18.4 mph - N/A   Overcast
1:55 PM 35.6 °F 27.5 °F 31.3 °F 84% 29.77 in 10.0 mi WSW 11.5 mph 25.3 mph N/A   Overcast
2:15 PM 35.4 °F 25.3 °F 30.9 °F 84% 29.77 in 10.0 mi WSW 17.3 mph 24.2 mph N/A   Overcast
2:35 PM 34.9 °F 24.2 °F 30.6 °F 84% 29.78 in 10.0 mi WSW 18.4 mph 24.2 mph N/A   Overcast
2:55 PM 35.1 °F 25.2 °F 30.7 °F 84% 29.78 in 10.0 mi WSW 16.1 mph 21.9 mph N/A   Overcast
3:15 PM 34.9 °F 26.6 °F 30.4 °F 84% 29.78 in 10.0 mi WSW 11.5 mph 23.0 mph N/A   Overcast
3:35 PM 35.2 °F 25.0 °F 30.0 °F 81% 29.78 in 10.0 mi West 17.3 mph 21.9 mph N/A   Overcast
3:55 PM 35.2 °F 25.8 °F 30.0 °F 81% 29.79 in 10.0 mi West 15.0 mph 26.5 mph N/A   Overcast
4:15 PM 35.1 °F 25.9 °F 30.4 °F 83% 29.80 in 10.0 mi WSW 13.8 mph 24.2 mph N/A   Overcast
4:35 PM 34.9 °F 25.3 °F 30.0 °F 82% 29.81 in 10.0 mi WSW 15.0 mph 19.6 mph N/A   Overcast
4:55 PM 34.7 °F 25.1 °F 30.2 °F 84% 29.82 in 10.0 mi WSW 15.0 mph 19.6 mph N/A   Overcast
5:15 PM 34.7 °F 25.5 °F 29.3 °F 81% 29.83 in 10.0 mi WSW 13.8 mph 24.2 mph N/A   Overcast
5:35 PM 34.7 °F 26.9 °F 29.5 °F 81% 29.83 in 10.0 mi West 10.4 mph 17.3 mph N/A   Overcast
5:55 PM 34.7 °F 26.9 °F 29.1 °F 80% 29.84 in 10.0 mi West 10.4 mph - N/A   Overcast
6:15 PM 34.7 °F 26.9 °F 29.5 °F 81% 29.85 in 10.0 mi West 10.4 mph - N/A   Overcast
6:35 PM 34.5 °F 26.7 °F 28.8 °F 79% 29.86 in 10.0 mi West 10.4 mph - N/A   Overcast
6:55 PM 34.7 °F 27.5 °F 28.6 °F 78% 29.87 in 10.0 mi West 9.2 mph 18.4 mph N/A   Overcast
7:15 PM 34.7 °F 25.9 °F 28.9 °F 79% 29.88 in 10.0 mi West 12.7 mph - N/A   Overcast
7:35 PM 34.7 °F 25.5 °F 28.4 °F 78% 29.89 in 10.0 mi West 13.8 mph 23.0 mph N/A   Overcast
7:55 PM 34.5 °F 25.7 °F 28.2 °F 78% 29.90 in 10.0 mi West 12.7 mph 19.6 mph N/A   Overcast
8:15 PM 34.3 °F 26.5 °F 28.0 °F 78% 29.90 in 10.0 mi West 10.4 mph - N/A   Overcast
8:35 PM 34.7 °F 26.9 °F 27.3 °F 74% 29.91 in 10.0 mi West 10.4 mph - N/A   Overcast
8:55 PM 34.5 °F 26.7 °F 27.7 °F 76% 29.92 in 10.0 mi West 10.4 mph - N/A   Overcast
9:15 PM 34.7 °F 26.9 °F 27.5 °F 75% 29.93 in 10.0 mi West 10.4 mph - N/A   Overcast
9:35 PM 34.7 °F 26.9 °F 27.3 °F 74% 29.93 in 10.0 mi West 10.4 mph - N/A   Overcast
9:55 PM 34.7 °F 25.5 °F 27.3 °F 74% 29.94 in 10.0 mi West 13.8 mph 17.3 mph N/A   Overcast
10:15 PM 34.7 °F 26.4 °F 27.3 °F 74% 29.94 in 10.0 mi West 11.5 mph - N/A   Overcast
10:35 PM 35.6 °F 29.2 °F 26.6 °F 70% 29.95 in 10.0 mi West 8.1 mph - N/A   Overcast
10:55 PM 34.7 °F 28.1 °F 27.5 °F 75% 29.95 in 10.0 mi WSW 8.1 mph - N/A   Overcast
11:15 PM 34.5 °F 27.3 °F 27.3 °F 75% 29.95 in 10.0 mi WSW 9.2 mph - N/A   Overcast
11:35 PM 34.3 °F 27.0 °F 27.3 °F 76% 29.96 in 10.0 mi West 9.2 mph - N/A   Overcast
11:55 PM 34.7 °F 27.5 °F 26.6 °F 72% 29.96 in 10.0 mi West 9.2 mph - N/A   Overcast